createdAt,value
2018-01-16T00:01:16.752Z,4.02
2018-01-16T00:03:45.155Z,4.05
2018-01-16T00:06:13.554Z,4.04
2018-01-16T00:08:41.868Z,4.07
2018-01-16T00:11:10.195Z,4.08
2018-01-16T00:13:38.565Z,4.05
2018-01-16T00:16:06.971Z,4.09
2018-01-16T00:18:36.118Z,3.99
2018-01-16T00:21:04.463Z,3.98
2018-01-16T00:23:32.854Z,3.98
2018-01-16T00:26:01.219Z,3.99
2018-01-16T00:28:30.356Z,4.00
2018-01-16T00:30:58.823Z,4.03
2018-01-16T00:33:27.221Z,4.02
2018-01-16T00:35:55.622Z,3.99
2018-01-16T00:38:23.952Z,4.07
2018-01-16T00:40:52.287Z,3.98
2018-01-16T00:43:20.635Z,3.98
2018-01-16T00:45:48.946Z,3.98
2018-01-16T00:48:17.323Z,4.02
2018-01-16T00:50:46.444Z,4.01
2018-01-16T00:53:14.833Z,4.03
2018-01-16T00:55:43.247Z,4.00
2018-01-16T00:58:11.637Z,4.04
2018-01-16T01:00:40.030Z,4.01
2018-01-16T01:03:08.485Z,4.03
2018-01-16T01:05:36.816Z,4.02
2018-01-16T01:08:05.957Z,4.00
2018-01-16T01:10:34.296Z,3.99
2018-01-16T01:13:02.695Z,4.03
2018-01-16T01:15:31.062Z,4.02
2018-01-16T01:17:59.387Z,4.01
2018-01-16T01:20:27.782Z,4.02
2018-01-16T01:22:56.958Z,4.07
2018-01-16T01:25:25.344Z,4.03
2018-01-16T01:27:53.731Z,4.08
2018-01-16T01:30:22.860Z,4.12
2018-01-16T01:32:51.235Z,4.09
2018-01-16T01:35:19.606Z,4.09
2018-01-16T01:37:48.741Z,4.13
2018-01-16T01:40:17.067Z,4.11
2018-01-16T01:42:46.178Z,4.15
2018-01-16T01:45:15.277Z,4.16
2018-01-16T01:47:44.463Z,4.19
2018-01-16T01:50:13.648Z,4.20
2018-01-16T01:52:42.817Z,4.19
2018-01-16T01:55:11.226Z,4.15
2018-01-16T01:57:39.549Z,4.17
2018-01-16T02:00:07.922Z,4.23
2018-01-16T02:02:36.332Z,4.30
2018-01-16T02:05:04.728Z,4.37
2018-01-16T02:07:33.150Z,4.42
2018-01-16T02:10:01.475Z,4.43
2018-01-16T02:12:29.792Z,4.48
2018-01-16T02:14:58.947Z,4.51
2018-01-16T02:17:27.377Z,4.59
2018-01-16T02:19:55.758Z,4.67
2018-01-16T02:22:24.073Z,4.73
2018-01-16T02:24:52.396Z,4.77
2018-01-16T02:27:21.554Z,4.79
2018-01-16T02:29:49.891Z,4.88
2018-01-16T02:32:18.250Z,4.93
2018-01-16T02:34:46.571Z,4.92
2018-01-16T02:37:14.879Z,4.87
2018-01-16T02:39:43.283Z,4.81
2018-01-16T02:42:12.392Z,4.78
2018-01-16T02:44:40.743Z,4.75
2018-01-16T02:47:09.111Z,4.70
2018-01-16T02:49:37.482Z,4.76
2018-01-16T02:52:05.847Z,4.71
2018-01-16T02:54:34.225Z,4.74
2018-01-16T02:57:02.617Z,4.69
2018-01-16T02:59:30.971Z,4.75
2018-01-16T03:01:59.289Z,4.74
2018-01-16T03:04:28.074Z,4.80
2018-01-16T03:06:56.392Z,4.79
2018-01-16T03:09:24.802Z,4.86
2018-01-16T03:11:53.151Z,4.91
2018-01-16T03:14:21.499Z,4.91
2018-01-16T03:16:49.835Z,4.93
2018-01-16T03:19:18.211Z,4.97
2018-01-16T03:21:46.802Z,5.02
2018-01-16T03:24:15.891Z,5.06
2018-01-16T03:26:44.262Z,5.05
2018-01-16T03:29:12.690Z,5.04
2018-01-16T03:31:41.839Z,5.02
2018-01-16T03:34:10.164Z,5.08
2018-01-16T03:36:38.597Z,5.07
2018-01-16T03:39:06.924Z,4.90
2018-01-16T03:41:35.317Z,4.95
2018-01-16T03:44:04.403Z,4.95
2018-01-16T03:46:32.746Z,5.01
2018-01-16T03:49:01.087Z,4.95
2018-01-16T03:51:29.458Z,4.86
2018-01-16T03:53:57.842Z,4.96
2018-01-16T03:56:26.246Z,4.95
2018-01-16T03:58:55.360Z,4.99
2018-01-16T04:01:23.778Z,5.01
2018-01-16T04:03:52.948Z,5.02
2018-01-16T04:06:21.263Z,5.10
2018-01-16T04:08:50.363Z,5.18
2018-01-16T04:11:20.222Z,5.08
2018-01-16T04:13:48.618Z,5.04
2018-01-16T04:16:17.030Z,4.98
2018-01-16T04:18:45.373Z,4.94
2018-01-16T04:21:14.858Z,4.92
2018-01-16T04:23:43.240Z,4.94
2018-01-16T04:26:11.631Z,4.95
2018-01-16T04:28:40.755Z,5.04
2018-01-16T04:31:09.915Z,5.08
2018-01-16T04:33:38.256Z,5.09
2018-01-16T04:36:06.787Z,5.13
2018-01-16T04:38:35.108Z,5.10
2018-01-16T04:41:03.443Z,5.07
2018-01-16T04:43:32.103Z,5.06
2018-01-16T04:46:00.415Z,5.06
2018-01-16T04:48:28.755Z,4.97
2018-01-16T04:50:57.091Z,4.97
2018-01-16T04:53:26.255Z,4.86
2018-01-16T04:55:54.649Z,4.79
2018-01-16T04:58:24.321Z,4.68
2018-01-16T05:00:52.702Z,4.60
2018-01-16T05:03:21.099Z,4.47
2018-01-16T05:05:49.505Z,4.36
2018-01-16T05:08:18.670Z,4.32
2018-01-16T05:10:47.055Z,4.25
2018-01-16T05:13:15.383Z,4.20
2018-01-16T05:15:43.790Z,4.13
2018-01-16T05:18:12.116Z,4.03
2018-01-16T05:20:40.432Z,4.03
2018-01-16T05:23:08.830Z,4.03
2018-01-16T05:25:37.187Z,4.07
2018-01-16T05:28:05.566Z,4.13
2018-01-16T05:30:33.927Z,4.09
2018-01-16T05:33:03.067Z,4.08
2018-01-16T05:35:31.383Z,4.06
2018-01-16T05:37:59.777Z,4.02
2018-01-16T05:40:28.162Z,3.94
2018-01-16T05:42:56.500Z,3.89
2018-01-16T05:45:24.876Z,3.88
2018-01-16T05:47:53.283Z,3.86
2018-01-16T05:50:22.470Z,3.83
2018-01-16T05:52:51.619Z,3.88
2018-01-16T05:55:20.022Z,3.90
2018-01-16T05:57:48.477Z,3.88
2018-01-16T06:00:16.803Z,3.93
2018-01-16T06:02:45.107Z,4.00
2018-01-16T06:05:13.519Z,4.05
2018-01-16T06:07:41.908Z,4.18
2018-01-16T06:10:10.260Z,4.24
2018-01-16T06:12:38.596Z,4.24
2018-01-16T06:15:06.989Z,4.23
2018-01-16T06:17:36.143Z,4.06
2018-01-16T06:20:04.554Z,3.91
2018-01-16T06:22:33.667Z,3.84
2018-01-16T06:25:02.834Z,3.63
2018-01-16T06:27:31.233Z,3.54
2018-01-16T06:30:00.327Z,3.52
2018-01-16T06:32:29.441Z,3.55
2018-01-16T06:34:57.756Z,3.49
2018-01-16T06:37:26.137Z,3.47
2018-01-16T06:39:54.912Z,3.51
2018-01-16T06:42:23.321Z,3.64
2018-01-16T06:44:51.705Z,4.04
2018-01-16T06:47:20.033Z,4.42
2018-01-16T06:49:48.429Z,4.69
2018-01-16T06:52:16.751Z,4.77
2018-01-16T06:54:45.144Z,4.82
2018-01-16T06:57:13.490Z,4.95
2018-01-16T06:59:41.827Z,4.99
2018-01-16T07:02:10.235Z,5.07
2018-01-16T07:04:39.385Z,5.15
2018-01-16T07:07:07.797Z,5.29
2018-01-16T07:09:36.140Z,5.34
2018-01-16T07:12:05.269Z,5.50
2018-01-16T07:14:33.647Z,5.40
2018-01-16T07:17:01.961Z,5.25
2018-01-16T07:19:30.377Z,5.21
2018-01-16T07:21:58.719Z,5.12
2018-01-16T07:24:27.035Z,5.17
2018-01-16T07:26:55.444Z,4.93
2018-01-16T07:29:23.838Z,4.69
2018-01-16T07:31:52.188Z,4.59
2018-01-16T07:34:20.559Z,4.53
2018-01-16T07:36:48.943Z,4.45
2018-01-16T07:39:17.554Z,4.44
2018-01-16T07:41:45.945Z,4.40
2018-01-16T07:44:14.275Z,4.28
2018-01-16T07:46:42.685Z,4.64
2018-01-16T07:49:11.003Z,5.01
2018-01-16T07:51:39.382Z,4.46
2018-01-16T07:54:08.557Z,4.21
2018-01-16T07:56:36.951Z,4.09
2018-01-16T07:59:05.350Z,4.16
2018-01-16T08:01:34.435Z,4.15
2018-01-16T08:04:02.766Z,4.11
2018-01-16T08:06:31.163Z,4.14
2018-01-16T08:08:59.570Z,4.30
2018-01-16T08:11:28.660Z,4.53
2018-01-16T08:13:57.054Z,4.77
2018-01-16T08:16:26.202Z,5.56
2018-01-16T08:18:54.543Z,5.36
2018-01-16T08:21:22.876Z,5.39
2018-01-16T08:23:51.211Z,5.56
2018-01-16T08:26:19.581Z,5.67
2018-01-16T08:28:47.894Z,5.83
2018-01-16T08:31:16.223Z,5.91
2018-01-16T08:33:45.299Z,5.97
2018-01-16T08:36:13.734Z,6.01
2018-01-16T08:38:42.873Z,6.08
2018-01-16T08:41:12.027Z,6.23
2018-01-16T08:43:40.618Z,6.45
2018-01-16T08:46:08.954Z,6.57
2018-01-16T08:48:38.041Z,6.68
2018-01-16T08:51:07.357Z,6.39
2018-01-16T08:53:35.730Z,6.35
2018-01-16T08:56:04.134Z,6.54
2018-01-16T08:58:32.483Z,6.42
2018-01-16T09:01:01.622Z,6.36
2018-01-16T09:03:29.940Z,6.34
2018-01-16T09:05:58.288Z,6.11
2018-01-16T09:08:26.663Z,6.09
2018-01-16T09:10:54.988Z,6.25
2018-01-16T09:13:24.111Z,6.67
2018-01-16T09:15:52.428Z,6.81
2018-01-16T09:18:20.811Z,6.66
2018-01-16T09:20:49.155Z,5.65
2018-01-16T09:23:17.466Z,5.52
2018-01-16T09:25:45.868Z,5.72
2018-01-16T09:28:15.025Z,5.71
2018-01-16T09:30:43.385Z,5.93
2018-01-16T09:33:11.772Z,6.18
2018-01-16T09:35:40.888Z,6.64
2018-01-16T09:38:09.298Z,7.07
2018-01-16T09:40:38.451Z,7.29
2018-01-16T09:43:06.855Z,7.33
2018-01-16T09:45:35.214Z,7.72
2018-01-16T09:48:03.527Z,7.87
2018-01-16T09:50:31.918Z,8.05
2018-01-16T09:53:01.028Z,8.98
2018-01-16T09:55:29.423Z,8.23
2018-01-16T09:57:57.820Z,7.77
2018-01-16T10:00:26.248Z,6.79
2018-01-16T10:02:55.336Z,6.20
2018-01-16T10:05:23.710Z,5.64
2018-01-16T10:07:52.829Z,5.58
2018-01-16T10:10:21.978Z,5.49
2018-01-16T10:12:51.082Z,5.38
2018-01-16T10:15:19.513Z,5.48
2018-01-16T10:17:47.847Z,5.23
2018-01-16T10:20:16.226Z,5.18
2018-01-16T10:22:44.613Z,5.03
2018-01-16T10:25:13.725Z,4.95
2018-01-16T10:27:42.882Z,4.89
2018-01-16T10:30:11.258Z,4.82
2018-01-16T10:32:39.607Z,4.89
2018-01-16T10:35:08.014Z,5.00
2018-01-16T10:37:36.336Z,5.58
2018-01-16T10:40:05.470Z,5.61
2018-01-16T10:42:33.879Z,5.61
2018-01-16T10:45:02.266Z,5.48
2018-01-16T10:47:30.650Z,5.13
2018-01-16T10:49:58.999Z,4.91
2018-01-16T10:52:27.397Z,5.15
2018-01-16T10:54:55.810Z,5.23
2018-01-16T10:57:24.190Z,5.01
2018-01-16T10:59:52.582Z,4.97
2018-01-16T11:02:20.923Z,5.03
2018-01-16T11:04:49.319Z,5.07
2018-01-16T11:07:18.470Z,5.05
2018-01-16T11:09:46.886Z,4.95
2018-01-16T11:12:16.061Z,5.07
2018-01-16T11:14:44.386Z,5.25
2018-01-16T11:17:12.719Z,4.98
2018-01-16T11:19:41.071Z,5.24
2018-01-16T11:22:09.462Z,5.15
2018-01-16T11:24:37.787Z,5.30
2018-01-16T11:27:06.897Z,5.04
2018-01-16T11:29:35.211Z,5.05
2018-01-16T11:32:03.588Z,4.90
2018-01-16T11:34:32.031Z,5.00
2018-01-16T11:37:00.378Z,4.63
2018-01-16T11:39:28.719Z,4.72
2018-01-16T11:41:57.027Z,4.83
2018-01-16T11:44:25.477Z,4.91
2018-01-16T11:46:53.900Z,4.89
2018-01-16T11:49:23.007Z,5.05
2018-01-16T11:51:52.116Z,4.96
2018-01-16T11:54:20.506Z,5.09
2018-01-16T11:56:48.871Z,5.14
2018-01-16T11:59:17.944Z,4.89
2018-01-16T12:01:46.317Z,5.00
2018-01-16T12:04:15.495Z,5.10
2018-01-16T12:06:43.856Z,5.23
2018-01-16T12:09:12.372Z,5.16
2018-01-16T12:11:40.754Z,5.37
2018-01-16T12:14:09.151Z,5.32
2018-01-16T12:16:37.570Z,5.37
2018-01-16T12:19:05.990Z,5.35
2018-01-16T12:21:35.130Z,5.35
2018-01-16T12:24:03.458Z,5.22
2018-01-16T12:26:31.862Z,5.36
2018-01-16T12:29:01.018Z,5.24
2018-01-16T12:31:29.363Z,5.17
2018-01-16T12:33:57.735Z,5.19
2018-01-16T12:36:26.142Z,5.07
2018-01-16T12:38:54.476Z,5.07
2018-01-16T12:41:23.556Z,5.00
2018-01-16T12:43:52.152Z,5.11
2018-01-16T12:46:21.306Z,5.10
2018-01-16T12:48:49.642Z,5.29
2018-01-16T12:51:18.043Z,5.34
2018-01-16T12:53:46.434Z,5.44
2018-01-16T12:56:15.634Z,5.36
2018-01-16T12:58:43.956Z,5.33
2018-01-16T13:01:13.110Z,5.63
2018-01-16T13:03:41.528Z,5.57
2018-01-16T13:06:11.514Z,5.72
2018-01-16T13:08:39.877Z,5.46
2018-01-16T13:11:08.264Z,5.46
2018-01-16T13:13:36.716Z,5.50
2018-01-16T13:16:05.189Z,5.35
2018-01-16T13:18:33.802Z,5.34
2018-01-16T13:21:02.201Z,5.49
2018-01-16T13:23:31.328Z,5.54
2018-01-16T13:26:00.495Z,5.66
2018-01-16T13:28:28.886Z,5.43
2018-01-16T13:30:57.254Z,5.31
2018-01-16T13:33:25.583Z,5.04
2018-01-16T13:35:54.138Z,4.99
2018-01-16T13:38:22.457Z,5.01
2018-01-16T13:40:50.795Z,4.97
2018-01-16T13:43:19.155Z,4.97
2018-01-16T13:45:47.534Z,4.75
2018-01-16T13:48:15.965Z,4.78
2018-01-16T13:50:44.303Z,4.64
2018-01-16T13:53:12.621Z,4.38
2018-01-16T13:55:41.037Z,4.27
2018-01-16T13:58:09.427Z,4.16
2018-01-16T14:00:37.816Z,4.03
2018-01-16T14:03:06.168Z,3.82
2018-01-16T14:05:34.550Z,3.74
2018-01-16T14:08:02.947Z,3.77
2018-01-16T14:10:31.307Z,3.73
2018-01-16T14:12:59.685Z,3.73
2018-01-16T14:15:28.067Z,3.73
2018-01-16T14:17:56.490Z,3.67
2018-01-16T14:20:24.816Z,3.83
2018-01-16T14:22:53.164Z,3.87
2018-01-16T14:25:21.559Z,3.73
2018-01-16T14:27:49.907Z,3.79
2018-01-16T14:30:19.086Z,3.70
2018-01-16T14:32:47.494Z,3.70
2018-01-16T14:35:15.844Z,3.70
2018-01-16T14:37:44.223Z,3.75
2018-01-16T14:40:12.564Z,3.66
2018-01-16T14:42:40.894Z,3.61
2018-01-16T14:45:09.983Z,3.65
2018-01-16T14:47:40.066Z,3.58
2018-01-16T14:50:08.410Z,3.61
2018-01-16T14:52:37.663Z,3.55
2018-01-16T14:55:05.999Z,3.60
2018-01-16T14:57:34.381Z,3.54
2018-01-16T15:00:02.724Z,3.58
2018-01-16T15:02:31.831Z,3.61
2018-01-16T15:05:00.167Z,3.57
2018-01-16T15:07:28.548Z,3.61
2018-01-16T15:09:57.762Z,3.63
2018-01-16T15:12:26.938Z,3.54
2018-01-16T15:14:55.323Z,3.58
2018-01-16T15:17:23.722Z,3.63
2018-01-16T15:19:53.444Z,3.55
2018-01-16T15:22:21.824Z,3.52
2018-01-16T15:24:50.273Z,3.40
2018-01-16T15:27:18.715Z,3.47
2018-01-16T15:29:47.166Z,3.51
2018-01-16T15:32:15.609Z,3.53
2018-01-16T15:34:44.056Z,3.53
2018-01-16T15:37:12.447Z,3.41
2018-01-16T15:39:40.816Z,3.34
2018-01-16T15:42:09.275Z,3.35
2018-01-16T15:44:37.716Z,3.31
2018-01-16T15:47:06.166Z,3.54
2018-01-16T15:49:34.731Z,3.62
2018-01-16T15:52:03.126Z,3.76
2018-01-16T15:54:31.860Z,3.79
2018-01-16T15:57:00.319Z,3.76
2018-01-16T15:59:28.728Z,3.70
2018-01-16T16:01:57.862Z,3.66
2018-01-16T16:04:26.270Z,3.56
2018-01-16T16:06:54.796Z,3.52
2018-01-16T16:09:23.132Z,3.53
2018-01-16T16:11:51.695Z,3.49
2018-01-16T16:14:20.152Z,3.51
2018-01-16T16:16:48.818Z,3.48
2018-01-16T16:19:17.337Z,3.50
2018-01-16T16:21:45.926Z,3.48
2018-01-16T16:24:14.369Z,3.46
2018-01-16T16:26:42.883Z,3.37
2018-01-16T16:29:11.333Z,3.31
2018-01-16T16:31:39.810Z,3.20
2018-01-16T16:34:08.283Z,3.11
2018-01-16T16:36:37.624Z,3.03
2018-01-16T16:39:06.835Z,2.91
2018-01-16T16:41:35.404Z,2.89
2018-01-16T16:44:03.849Z,2.80
2018-01-16T16:46:32.359Z,2.68
2018-01-16T16:49:00.918Z,2.59
2018-01-16T16:51:30.151Z,2.48
2018-01-16T16:53:58.607Z,2.40
2018-01-16T16:56:27.108Z,2.75
2018-01-16T16:58:55.545Z,2.44
2018-01-16T17:01:24.688Z,2.31
2018-01-16T17:03:53.058Z,2.25
2018-01-16T17:06:21.524Z,2.20
2018-01-16T17:08:49.868Z,2.13
2018-01-16T17:11:18.282Z,2.11
2018-01-16T17:13:46.628Z,2.09
2018-01-16T17:16:14.976Z,2.07
2018-01-16T17:18:44.145Z,1.99
2018-01-16T17:21:13.256Z,2.02
2018-01-16T17:23:41.669Z,2.01
2018-01-16T17:26:10.032Z,2.04
2018-01-16T17:28:39.215Z,2.03
2018-01-16T17:31:07.577Z,2.02
2018-01-16T17:33:35.940Z,1.98
2018-01-16T17:36:04.297Z,1.98
2018-01-16T17:38:32.780Z,1.90
2018-01-16T17:41:01.195Z,1.82
2018-01-16T17:43:29.563Z,1.82
2018-01-16T17:45:58.015Z,1.85
2018-01-16T17:48:26.434Z,1.85
2018-01-16T17:50:55.009Z,1.90
2018-01-16T17:53:23.469Z,1.92
2018-01-16T17:55:52.016Z,1.92
2018-01-16T17:58:20.444Z,1.89
2018-01-16T18:00:48.935Z,1.82
2018-01-16T18:03:17.815Z,1.77
2018-01-16T18:05:46.307Z,1.83
2018-01-16T18:08:15.849Z,1.92
2018-01-16T18:10:44.316Z,1.87
2018-01-16T18:13:13.009Z,1.81
2018-01-16T18:15:41.612Z,1.79
2018-01-16T18:18:09.946Z,1.91
2018-01-16T18:20:38.276Z,1.83
2018-01-16T18:23:06.866Z,1.93
2018-01-16T18:25:36.353Z,1.89
2018-01-16T18:28:04.883Z,1.85
2018-01-16T18:30:33.415Z,1.85
2018-01-16T18:33:03.004Z,1.83
2018-01-16T18:35:33.684Z,1.76
2018-01-16T18:38:02.904Z,1.75
2018-01-16T18:40:31.413Z,1.78
2018-01-16T18:42:59.784Z,1.79
2018-01-16T18:45:28.218Z,1.79
2018-01-16T18:47:57.601Z,1.82
2018-01-16T18:50:25.947Z,1.87
2018-01-16T18:52:54.399Z,1.89
2018-01-16T18:55:23.513Z,1.86
2018-01-16T18:57:52.309Z,1.84
2018-01-16T19:00:20.712Z,1.82
2018-01-16T19:02:49.242Z,1.82
2018-01-16T19:05:17.751Z,1.89
2018-01-16T19:07:46.127Z,1.88
2018-01-16T19:10:15.149Z,1.85
2018-01-16T19:12:43.866Z,1.90
2018-01-16T19:15:12.982Z,1.91
2018-01-16T19:17:42.285Z,1.92
2018-01-16T19:20:11.189Z,1.87
2018-01-16T19:22:39.756Z,1.91
2018-01-16T19:25:08.259Z,1.99
2018-01-16T19:27:36.722Z,2.01
2018-01-16T19:30:05.949Z,1.94
2018-01-16T19:32:34.671Z,2.02
2018-01-16T19:35:04.278Z,2.01
2018-01-16T19:37:33.154Z,2.00
2018-01-16T19:40:01.546Z,1.96
2018-01-16T19:42:30.030Z,1.99
2018-01-16T19:44:58.506Z,1.92
2018-01-16T19:47:26.923Z,1.95
2018-01-16T19:49:56.108Z,1.92
2018-01-16T19:52:25.411Z,1.91
2018-01-16T19:54:53.837Z,1.85
2018-01-16T19:57:23.123Z,1.83
2018-01-16T19:59:51.539Z,1.78
2018-01-16T20:02:19.896Z,1.77
2018-01-16T20:04:48.294Z,1.75
2018-01-16T20:07:16.685Z,1.73
2018-01-16T20:09:45.139Z,1.77
2018-01-16T20:12:13.539Z,1.81
2018-01-16T20:14:42.030Z,1.80
2018-01-16T20:17:11.168Z,1.80
2018-01-16T20:19:39.505Z,1.87
2018-01-16T20:22:08.037Z,1.98
2018-01-16T20:24:36.449Z,1.93
2018-01-16T20:27:04.896Z,1.82
2018-01-16T20:29:33.257Z,1.97
2018-01-16T20:32:01.782Z,2.02
2018-01-16T20:34:30.174Z,2.06
2018-01-16T20:36:58.572Z,2.14
2018-01-16T20:39:26.950Z,2.12
2018-01-16T20:41:55.361Z,2.06
2018-01-16T20:44:24.578Z,2.03
2018-01-16T20:46:52.985Z,1.96
2018-01-16T20:49:21.443Z,1.89
2018-01-16T20:51:49.810Z,1.87
2018-01-16T20:54:18.249Z,1.81
2018-01-16T20:56:47.391Z,1.87
2018-01-16T20:59:16.141Z,1.90
2018-01-16T21:01:45.321Z,1.88
2018-01-16T21:04:13.730Z,1.87
2018-01-16T21:06:42.165Z,1.85
2018-01-16T21:09:10.498Z,1.83
2018-01-16T21:11:38.871Z,1.81
2018-01-16T21:14:07.206Z,1.78
2018-01-16T21:16:35.634Z,1.83
2018-01-16T21:19:03.988Z,1.82
2018-01-16T21:21:33.171Z,1.85
2018-01-16T21:24:01.570Z,1.93
2018-01-16T21:26:30.915Z,1.97
2018-01-16T21:28:59.283Z,2.02
2018-01-16T21:31:27.649Z,1.99
2018-01-16T21:33:56.102Z,2.06
2018-01-16T21:36:25.235Z,2.08
2018-01-16T21:38:53.620Z,2.04
2018-01-16T21:41:21.981Z,2.06
2018-01-16T21:43:50.399Z,2.09
2018-01-16T21:46:18.853Z,2.04
2018-01-16T21:48:47.462Z,2.05
2018-01-16T21:51:16.636Z,1.97
2018-01-16T21:53:45.101Z,1.96
2018-01-16T21:56:13.566Z,1.97
2018-01-16T21:58:42.242Z,1.98
2018-01-16T22:01:11.540Z,2.01
2018-01-16T22:03:40.732Z,1.99
2018-01-16T22:06:09.242Z,1.90
2018-01-16T22:08:38.391Z,1.89
2018-01-16T22:11:06.805Z,1.87
2018-01-16T22:13:36.098Z,1.83
2018-01-16T22:16:05.271Z,1.96
2018-01-16T22:18:33.714Z,1.93
2018-01-16T22:21:02.178Z,1.95
2018-01-16T22:23:30.567Z,1.97
2018-01-16T22:25:59.010Z,1.99
2018-01-16T22:28:28.207Z,1.96
2018-01-16T22:30:56.652Z,1.91
2018-01-16T22:33:25.133Z,1.93
2018-01-16T22:35:53.614Z,1.80
2018-01-16T22:38:22.135Z,1.84
2018-01-16T22:40:51.415Z,1.79
2018-01-16T22:43:19.820Z,1.71
2018-01-16T22:45:49.161Z,1.76
2018-01-16T22:48:17.557Z,1.83
2018-01-16T22:50:45.961Z,1.75
2018-01-16T22:53:14.596Z,1.70
2018-01-16T22:55:42.948Z,1.63
2018-01-16T22:58:12.297Z,1.57
2018-01-16T23:00:41.464Z,1.58
2018-01-16T23:03:09.823Z,1.55
2018-01-16T23:05:39.014Z,1.52
2018-01-16T23:08:08.151Z,1.48
2018-01-16T23:10:36.573Z,1.52
2018-01-16T23:13:04.899Z,1.63
2018-01-16T23:15:33.241Z,1.77
2018-01-16T23:18:01.563Z,1.89
2018-01-16T23:20:29.904Z,1.94
2018-01-16T23:22:58.292Z,1.91
2018-01-16T23:25:27.479Z,1.80
2018-01-16T23:27:56.588Z,1.73
2018-01-16T23:30:24.967Z,1.63
2018-01-16T23:32:54.048Z,1.63
2018-01-16T23:35:22.364Z,1.52
2018-01-16T23:37:50.803Z,1.38
2018-01-16T23:40:19.152Z,1.33
2018-01-16T23:42:47.768Z,1.27
2018-01-16T23:45:16.154Z,1.19
2018-01-16T23:47:45.266Z,1.19
2018-01-16T23:50:13.623Z,1.12
2018-01-16T23:52:41.988Z,1.09
2018-01-16T23:55:10.333Z,1.12
2018-01-16T23:57:38.718Z,1.07
